• Join FlightAware (Why Join?)
  • Login
  • US Flag 
02:23AM EDT


 

Airport Tracker/Info


-or-


 

Live Flight TrackerFlight Track Log ✈ N612FE ✈ 13-Apr-2013 ✈ KMEM - MMGL / GDL

Flight Track Log - Related Links

Times and Time Zones

All times are in EDT time to prevent confusion due to time zone crossing. See the N612FE flight status page for this flight to view local times or setup timezone preferences in your user account.

Time Position Orientation Groundspeed Altitude Reporting Facility
EDT Latitude Longitude Course Direction KTS MPH feet Rate Location/Type
05:55AM 35.0167 -89.9833 192° South 195 224 1,400  Level KMEM
05:56AM 34.9500 -90.0000 192° South 256 295 4,100 3,420 Climbing KMEM
05:57AM 34.9500 -90.1000 270° West 253 291 8,600 4,140 Climbing KMEM
05:58AM 34.9333 -90.1833 256° West 252 290 13,300 3,600 Climbing KMEM
05:59AM 34.9322 -90.2506 269° West 259 298 14,900 2,280 Climbing Memphis Center
06:00AM 34.9261 -90.3394 265° West 273 314 17,100 2,160 Climbing Memphis Center
06:01AM 34.8800 -90.4128 233° Southwest 268 308 19,300 1,440 Climbing Memphis Center
06:02AM 34.8111 -90.5064 228° Southwest 318 366 20,000 1,440 Climbing Memphis Center
06:03AM 34.7400 -90.6122 231° Southwest 385 443 22,200 2,340 Climbing Memphis Center
06:04AM 34.6647 -90.7258 231° Southwest 428 493 24,700 2,100 Climbing Memphis Center
06:05AM 34.5872 -90.8364 230° Southwest 433 498 26,500 2,400 Climbing Memphis Center
06:06AM 34.5053 -90.9444 227° Southwest 433 498 29,500 2,760 Climbing Memphis Center
06:07AM 34.4172 -91.0419 222° Southwest 433 498 32,100 2,040 Climbing Memphis Center
06:08AM 34.3289 -91.1369 222° Southwest 428 493 33,600 900 Climbing Memphis Center
06:09AM 34.2469 -91.2217 221° Southwest 428 493 34,000 180 Climbing Memphis Center
06:10AM 34.1586 -91.3161 222° Southwest 428 493 34,000  Level Memphis Center
06:11AM 34.0744 -91.4103 223° Southwest 421 484 34,000  Level Memphis Center
06:12AM 33.9858 -91.5069 222° Southwest 426 490 34,000  Level Memphis Center
06:14AM 33.7975 -91.7100 222° Southwest 421 484 34,000  Level Fort Worth Center
06:15AM 33.7119 -91.8031 222° Southwest 428 493 34,000  Level Fort Worth Center
06:16AM 33.6242 -91.8908 220° Southwest 423 487 34,000  Level Fort Worth Center
06:17AM 33.5344 -91.9864 222° Southwest 423 487 34,000  Level Fort Worth Center
06:18AM 33.4444 -92.0789 221° Southwest 423 487 34,000  Level Fort Worth Center
06:19AM 33.3586 -92.1711 222° Southwest 423 487 34,000  Level Fort Worth Center
06:20AM 33.2706 -92.2608 220° Southwest 423 487 34,000  Level Fort Worth Center
06:21AM 33.1803 -92.3553 221° Southwest 423 487 34,000  Level Fort Worth Center
06:22AM 33.0881 -92.4500 221° Southwest 428 493 34,000  Level Fort Worth Center
06:23AM 32.9956 -92.5392 219° Southwest 434 499 34,000  Level Fort Worth Center
06:24AM 32.9014 -92.6408 222° Southwest 434 499 34,000  Level Fort Worth Center
06:25AM 32.8111 -92.7347 221° Southwest 434 499 34,000  Level Fort Worth Center
06:26AM 32.7183 -92.8258 220° Southwest 434 499 34,000  Level Fort Worth Center
06:27AM 32.6300 -92.9167 221° Southwest 434 499 34,000  Level Fort Worth Center
06:28AM 32.5392 -93.0100 221° Southwest 434 499 34,000  Level Fort Worth Center
06:29AM 32.4486 -93.1028 221° Southwest 439 505 34,000  Level Fort Worth Center
06:30AM 32.3558 -93.1958 220° Southwest 439 505 34,000  Level Fort Worth Center
06:32AM 32.2036 -93.3528 221° Southwest 433 498 34,000  Level Houston Center
06:38AM 31.6795 -93.8781 221° Southwest 437 503 34,000  Level FlightAware ADS-B
06:38AM 31.6270 -93.9302 220° Southwest 437 503 34,000  Level FlightAware ADS-B
06:39AM 31.5601 -93.9962 220° Southwest 437 503 34,000  Level FlightAware ADS-B
06:40AM 31.4801 -94.0758 220° Southwest 437 503 34,000  Level FlightAware ADS-B
06:41AM 31.3798 -94.1755 220° Southwest 439 505 34,000  Level FlightAware ADS-B
06:41AM 31.3190 -94.2350 220° Southwest 34,000  Level FlightAware
06:42AM 31.2990 -94.2535 218° Southwest 440 506 34,000  Level FlightAware ADS-B
06:42AM 31.2238 -94.3288 221° Southwest 441 507 34,000  Level FlightAware ADS-B
06:43AM 31.1717 -94.3795 220° Southwest 441 507 34,000  Level FlightAware ADS-B
06:43AM 31.1247 -94.4256 220° Southwest 441 507 34,000  Level FlightAware ADS-B
06:44AM 31.0766 -94.4731 220° Southwest 441 507 34,000  Level FlightAware ADS-B
06:45AM 31.0291 -94.5189 220° Southwest 441 507 34,000  Level FlightAware ADS-B
06:45AM 30.9829 -94.5646 220° Southwest 441 507 34,000  Level FlightAware ADS-B
06:46AM 30.9332 -94.6120 219° Southwest 441 507 34,000  Level FlightAware ADS-B
06:46AM 30.8839 -94.6608 220° Southwest 441 507 34,000  Level FlightAware ADS-B
06:47AM 30.8368 -94.7066 220° Southwest 440 506 34,000  Level FlightAware ADS-B
06:47AM 30.7899 -94.7520 220° Southwest 439 505 34,000  Level FlightAware ADS-B
06:48AM 30.7435 -94.7973 220° Southwest 437 503 34,000  Level FlightAware ADS-B
06:48AM 30.6937 -94.8452 220° Southwest 436 502 34,000  Level FlightAware ADS-B
06:49AM 30.6465 -94.8901 219° Southwest 435 501 34,000  Level FlightAware ADS-B
06:49AM 30.6018 -94.9336 220° Southwest 435 501 34,000  Level FlightAware ADS-B
06:50AM 30.5542 -94.9800 220° Southwest 436 502 34,000  Level FlightAware ADS-B
06:50AM 30.5073 -95.0251 220° Southwest 438 504 34,000  Level FlightAware ADS-B
06:51AM 30.4601 -95.0701 219° Southwest 439 505 34,000  Level FlightAware ADS-B
06:51AM 30.4124 -95.1152 219° Southwest 441 507 34,000  Level FlightAware ADS-B
06:52AM 30.3643 -95.1621 220° Southwest 445 512 34,000  Level FlightAware ADS-B
06:52AM 30.3159 -95.2079 219° Southwest 447 514 34,000  Level FlightAware ADS-B
06:53AM 30.2678 -95.2539 220° Southwest 449 517 34,000  Level FlightAware ADS-B
06:53AM 30.2177 -95.3028 220° Southwest 449 517 34,000  Level FlightAware ADS-B
06:54AM 30.1696 -95.3485 219° Southwest 447 514 34,000  Level FlightAware ADS-B
06:54AM 30.1199 -95.3956 219° Southwest 445 512 34,000  Level FlightAware ADS-B
06:55AM 30.0680 -95.4439 219° Southwest 444 511 34,000  Level FlightAware ADS-B
06:55AM 30.0176 -95.4922 220° Southwest 444 511 34,000  Level FlightAware ADS-B
06:56AM 29.9709 -95.5375 220° Southwest 444 511 34,000  Level FlightAware ADS-B
06:56AM 29.9256 -95.5796 219° Southwest 444 511 34,000  Level FlightAware ADS-B
06:57AM 29.8774 -95.6247 219° Southwest 445 512 34,000  Level FlightAware ADS-B
06:57AM 29.8290 -95.6715 220° Southwest 446 513 34,000  Level FlightAware ADS-B
06:58AM 29.7806 -95.7168 219° Southwest 447 514 34,000  Level FlightAware ADS-B
06:58AM 29.7324 -95.7622 219° Southwest 447 514 34,000  Level FlightAware ADS-B
06:59AM 29.6843 -95.8076 219° Southwest 448 516 34,000  Level FlightAware ADS-B
06:59AM 29.6356 -95.8529 219° Southwest 449 517 34,000  Level FlightAware ADS-B
07:00AM 29.5865 -95.8998 220° Southwest 450 518 34,000  Level FlightAware ADS-B
07:00AM 29.5365 -95.9469 219° Southwest 450 518 34,000  Level FlightAware ADS-B
07:01AM 29.4875 -95.9923 219° Southwest 451 519 34,000  Level FlightAware ADS-B
07:01AM 29.4388 -96.0376 219° Southwest 451 519 34,000 60 Level FlightAware ADS-B
07:02AM 29.3667 -96.1055 219° Southwest 447 514 34,100  Climbing FlightAware ADS-B
07:03AM 29.2770 -96.1890 219° Southwest 446 513 34,000 -120 Descending FlightAware
07:04AM 29.2130 -96.2490 219° Southwest 444 511 34,000  Level FlightAware
07:04AM 29.1500 -96.3070 219° Southwest 442 509 34,000  Level FlightAware
07:05AM 29.0840 -96.3690 219° Southwest 440 506 34,000  Level FlightAware
07:05AM 29.0675 -96.3832 217° Southwest 441 507 34,000  Level FlightAware ADS-B
07:06AM 29.0184 -96.4286 219° Southwest 439 505 34,000  Level FlightAware ADS-B
07:06AM 28.9663 -96.4768 219° Southwest 439 505 34,000  Level FlightAware ADS-B
07:07AM 28.9181 -96.5207 219° Southwest 439 505 34,000  Level FlightAware ADS-B
07:07AM 28.8695 -96.5659 219° Southwest 439 505 34,000  Level FlightAware ADS-B
07:08AM 28.8150 -96.6150 218° Southwest 440 506 34,000  Level FlightAware
07:08AM 28.7908 -96.6388 221° Southwest 439 505 34,000  Level FlightAware ADS-B
07:09AM 28.7010 -96.7210 219° Southwest 443 510 34,000  Level FlightAware
07:10AM 28.6280 -96.7880 219° Southwest 445 512 34,000  Level FlightAware
07:11AM 28.5430 -96.8650 219° Southwest 447 514 34,000  Level FlightAware
07:11AM 28.4910 -96.9120 218° Southwest 447 514 34,000  Level FlightAware
07:12AM 28.4160 -96.9810 219° Southwest 445 512 34,000  Level FlightAware
07:13AM 28.3420 -97.0490 219° Southwest 446 513 34,000  Level FlightAware
07:13AM 28.2790 -97.1060 219° Southwest 445 512 34,000  Level FlightAware
07:14AM 28.2250 -97.1560 219° Southwest 445 512 34,000  Level FlightAware
07:15AM 28.1430 -97.2300 219° Southwest 445 512 34,000  Level FlightAware
07:16AM 28.0700 -97.2950 218° Southwest 445 512 34,000  Level FlightAware
07:16AM 28.0070 -97.3520 219° Southwest 444 511 34,000  Level FlightAware
07:17AM 27.9390 -97.4130 218° Southwest 444 511 34,000  Level FlightAware
07:18AM 27.8730 -97.4850 224° Southwest 437 503 34,000  Level FlightAware
07:18AM 27.8210 -97.5520 229° Southwest 437 503 34,000 60 Level FlightAware
07:19AM 27.7670 -97.6210 229° Southwest 435 501 34,100  Climbing FlightAware
07:20AM 27.7070 -97.6990 229° Southwest 430 495 34,000 -120 Descending FlightAware
07:20AM 27.6550 -97.7650 228° Southwest 430 495 34,000  Level FlightAware
07:21AM 27.5960 -97.8420 229° Southwest 428 493 34,000  Level FlightAware
07:22AM 27.5450 -97.9060 228° Southwest 429 494 34,000  Level FlightAware
07:22AM 27.4890 -97.9790 229° Southwest 429 494 34,000  Level FlightAware
07:23AM 27.4430 -98.0370 228° Southwest 429 494 34,000  Level FlightAware
07:24AM 27.3970 -98.0940 228° Southwest 429 494 34,000  Level FlightAware
07:25AM 27.3410 -98.1640 228° Southwest 429 494 34,000  Level FlightAware
07:25AM 27.2960 -98.2210 228° Southwest 429 494 34,000  Level FlightAware
07:26AM 27.2510 -98.2770 228° Southwest 429 494 34,000  Level FlightAware
07:27AM 27.2050 -98.3330 227° Southwest 429 494 34,000  Level FlightAware
07:27AM 27.1020 -98.4700 230° Southwest 427 491 34,000  Level FlightAware
07:28AM 27.0460 -98.5410 228° Southwest 427 491 34,000  Level FlightAware
07:29AM 27.0010 -98.5970 228° Southwest 427 491 34,000  Level FlightAware
07:29AM 26.9560 -98.6530 228° Southwest 427 491 34,000  Level FlightAware
07:30AM 26.9110 -98.7090 228° Southwest 427 491 34,000  Level FlightAware
07:31AM 26.8660 -98.7650 228° Southwest 427 491 34,000  Level FlightAware
07:32AM 26.8100 -98.8350 228° Southwest 427 491 34,000  Level FlightAware
07:32AM 26.7650 -98.8910 228° Southwest 427 491 34,000  Level FlightAware
07:33AM 26.6770 -99.0040 229° Southwest 413 475 34,000  Level FlightAware
07:34AM 26.6270 -99.0660 228° Southwest 413 475 34,000  Level FlightAware
07:34AM 26.5830 -99.1200 228° Southwest 413 475 34,000  Level FlightAware
07:35AM 26.5290 -99.1880 228° Southwest 413 475 34,000  Level FlightAware
07:36AM 26.4860 -99.2420 228° Southwest 413 475 34,000  Level FlightAware
07:36AM 26.4420 -99.2960 228° Southwest 413 475 34,000  Level FlightAware
07:37AM 26.3990 -99.3500 228° Southwest 413 475 34,000  Level FlightAware
07:38AM 26.3550 -99.4040 228° Southwest 413 475 34,000  Level FlightAware
07:39AM 26.3010 -99.4710 228° Southwest 413 475 34,000  Level FlightAware
07:39AM 26.2570 -99.5250 228° Southwest 413 475 34,000  Level FlightAware
07:40AM 26.2140 -99.5790 228° Southwest 413 475 34,000  Level FlightAware
07:41AM 26.1700 -99.6320 227° Southwest 413 475 34,000  Level FlightAware
07:41AM 26.1270 -99.6860 228° Southwest 413 475 34,000  Level FlightAware
07:42AM 26.0730 -99.7530 228° Southwest 413 475 34,000  Level FlightAware
07:43AM 26.0290 -99.8070 228° Southwest 413 475 34,000  Level FlightAware
07:45AM 25.8909 -99.9615 225° Southwest  Level FlightAware Approximate
07:46AM 25.8103 -100.0514 225° Southwest  Level FlightAware Approximate
07:47AM 25.7248 -100.1357 218° Southwest  Level FlightAware Approximate
07:48AM 25.6343 -100.2128 218° Southwest  Level FlightAware Approximate
07:49AM 25.5437 -100.2898 218° Southwest  Level FlightAware Approximate
07:50AM 25.4531 -100.3667 217° Southwest  Level FlightAware Approximate
07:51AM 25.3625 -100.4435 217° Southwest  Level FlightAware Approximate
07:52AM 25.2718 -100.5202 217° Southwest  Level FlightAware Approximate
07:53AM 25.1811 -100.5967 217° Southwest  Level FlightAware Approximate
07:54AM 25.0903 -100.6732 217° Southwest  Level FlightAware Approximate
07:55AM 24.9995 -100.7495 217° Southwest  Level FlightAware Approximate
07:56AM 24.9087 -100.8257 217° Southwest  Level FlightAware Approximate
07:57AM 24.8178 -100.9018 217° Southwest  Level FlightAware Approximate
07:58AM 24.7281 -100.9795 218° Southwest  Level FlightAware Approximate
07:59AM 24.6386 -101.0575 218° Southwest  Level FlightAware Approximate
08:00AM 24.5491 -101.1354 218° Southwest  Level FlightAware Approximate
08:01AM 24.4596 -101.2132 218° Southwest  Level FlightAware Approximate
08:02AM 24.3700 -101.2909 218° Southwest  Level FlightAware Approximate
08:03AM 24.2804 -101.3684 218° Southwest  Level FlightAware Approximate
08:04AM 24.1907 -101.4459 218° Southwest  Level FlightAware Approximate
08:05AM 24.0874 -101.4954 198° South  Level FlightAware Approximate
08:06AM 23.9790 -101.5347 198° South  Level FlightAware Approximate
08:07AM 23.8707 -101.5738 198° South  Level FlightAware Approximate
08:08AM 23.7623 -101.6129 198° South  Level FlightAware Approximate
08:09AM 23.6539 -101.6520 198° South  Level FlightAware Approximate
08:10AM 23.5454 -101.6905 197° South  Level FlightAware Approximate
08:11AM 23.4362 -101.7268 197° South  Level FlightAware Approximate
08:12AM 23.3272 -101.7635 197° South  Level FlightAware Approximate
08:12AM 23.0050 -101.8830 197° South 440 506 34,000  Level FlightAware
08:12AM 22.9450 -101.9030 197° South 440 506 34,000  Level FlightAware
08:13AM 22.8390 -101.9400 198° South 441 507 34,000  Level FlightAware
08:14AM 22.7630 -101.9660 198° South 442 509 34,000  Level FlightAware
08:15AM 22.6720 -101.9970 197° South 442 509 34,000  Level FlightAware
08:15AM 22.5940 -102.0220 196° South 442 509 34,000  Level FlightAware
08:16AM 22.5280 -102.0450 198° South 443 510 34,000  Level FlightAware
08:17AM 22.4260 -102.0800 198° South 444 511 34,000  Level FlightAware
08:17AM 22.3590 -102.1020 197° South 447 514 34,000  Level FlightAware
08:18AM 22.2720 -102.1310 197° South 448 516 34,000  Level FlightAware
08:19AM 22.1870 -102.1600 198° South 448 516 34,000  Level FlightAware
08:19AM 22.0880 -102.1930 197° South 449 517 34,000  Level FlightAware
08:20AM 22.0290 -102.2130 197° South 448 516 34,000  Level FlightAware
08:21AM 21.9310 -102.2460 197° South 447 514 34,000  Level FlightAware
08:22AM 21.8420 -102.2750 197° South 448 516 34,000  Level FlightAware
08:22AM 21.7630 -102.3020 198° South 439 505 34,000 -1,320 Level FlightAware
08:23AM 21.6820 -102.3440 206° Southwest 409 471 32,200 -3,780 Descending FlightAware
08:24AM 21.6220 -102.3940 218° Southwest 441 507 28,700 -4,140 Descending FlightAware
08:24AM 21.5470 -102.4570 218° Southwest 447 514 26,400 -2,340 Descending FlightAware
08:25AM 21.4810 -102.5120 218° Southwest 458 527 25,400 -1,500 Descending FlightAware
08:26AM 21.4140 -102.5690 218° Southwest 458 527 24,400 -1,560 Descending FlightAware
08:26AM 21.3380 -102.6330 218° Southwest 443 510 23,200 -2,100 Descending FlightAware
08:27AM 21.2740 -102.6870 218° Southwest 428 493 21,500 -2,880 Descending FlightAware
08:28AM 21.2060 -102.7430 218° Southwest 420 483 19,200 -2,280 Descending FlightAware
08:29AM 21.1470 -102.7930 218° Southwest 389 448 18,300 -1,440 Descending FlightAware
08:29AM 21.0850 -102.8450 218° Southwest 359 413 17,200 -1,320 Descending FlightAware
08:30AM 21.0320 -102.8870 216° Southwest 338 389 16,500 -1,080 Descending FlightAware
08:31AM 20.9740 -102.9040 195° South 319 367 15,800 -1,080 Descending FlightAware
08:31AM 20.9120 -102.9210 194° South 301 346 15,000 -1,380 Descending FlightAware
08:32AM 20.8580 -102.9360 195° South 291 335 13,900 -1,680 Descending FlightAware
08:33AM 20.7990 -102.9510 193° South 286 329 12,700 -1,500 Descending FlightAware
08:33AM 20.7480 -102.9640 193° South 279 321 11,800 -1,620 Descending FlightAware
08:34AM 20.6970 -102.9770 193° South 281 323 10,600 -1,740 Descending FlightAware
08:35AM 20.6610 -102.9920 201° Southwest 276 318 9,800 -1,680 Descending FlightAware
08:35AM 20.6330 -103.0060 205° Southwest 270 311 9,100 -900 Descending FlightAware
08:36AM 20.6010 -103.0220 205° Southwest 240 276 9,000 -240 Descending FlightAware
08:36AM 20.5710 -103.0370 205° Southwest 242 278 8,900 -180 Descending FlightAware
08:36AM 20.5550 -103.0450 205° Southwest 239 275 8,900  Level FlightAware
08:37AM 20.5310 -103.0570 205° Southwest 239 275 8,900  Level FlightAware
08:37AM 20.5030 -103.0710 205° Southwest 203 234 8,900  Level FlightAware
08:38AM 20.4830 -103.0810 205° Southwest 192 221 8,900 -300 Level FlightAware
08:38AM 20.4730 -103.0900 220° Southwest 188 216 8,700 -840 Descending FlightAware
08:38AM 20.4630 -103.1150 247° West 183 211 8,300 -900 Descending FlightAware
08:39AM 20.4550 -103.1380 250° West 167 192 7,900 -720 Descending FlightAware
08:39AM 20.4530 -103.1450 253° West 167 192 7,900 -600 Level FlightAware
08:39AM 20.4590 -103.1610 292° West 179 206 7,600 -1,200 Descending FlightAware
08:40AM 20.4670 -103.1810 293° West 171 197 7,000 -1,020 Descending FlightAware
08:40AM 20.4770 -103.2040 295° West 173 199 6,700 -840 Descending FlightAware
08:41AM 20.4870 -103.2280 294° West 171 197 6,200 -1,020 Descending FlightAware
08:41AM 20.4950 -103.2480 293° West 173 199 5,800 -780 Descending FlightAware
08:42AM 20.5050 -103.2700 296° West 172 198 5,500 -780 Descending FlightAware
08:42AM 20.5180 -103.3020 293° West 157 181 4,900 -900 Descending FlightAware